createdAt,value
2022-08-26T00:56:53.965Z,93.30
2022-08-26T00:59:22.605Z,93.00
2022-08-26T01:01:49.711Z,92.70
2022-08-26T01:04:20.331Z,92.70
2022-08-26T01:06:49.432Z,92.70
2022-08-26T01:09:17.188Z,93.00
2022-08-26T01:11:44.594Z,92.80
2022-08-26T01:14:14.184Z,92.50
2022-08-26T01:16:42.333Z,92.80
2022-08-26T01:19:36.214Z,92.50
2022-08-26T01:22:12.327Z,92.50
2022-08-26T01:24:41.305Z,92.80
2022-08-26T01:27:11.258Z,92.20
2022-08-26T01:29:40.726Z,92.10
2022-08-26T01:32:10.879Z,92.50
2022-08-26T01:34:39.836Z,92.40
2022-08-26T01:37:27.192Z,92.60
2022-08-26T01:39:56.198Z,92.60
2022-08-26T01:42:25.984Z,92.50
2022-08-26T01:45:05.770Z,92.70
2022-08-26T01:47:35.635Z,92.80
2022-08-26T01:50:08.274Z,92.70
2022-08-26T01:52:39.519Z,92.70
2022-08-26T01:55:07.447Z,93.00
2022-08-26T01:57:35.913Z,92.10
2022-08-26T02:00:06.719Z,92.10
2022-08-26T02:02:40.096Z,92.70
2022-08-26T02:05:15.361Z,92.70
2022-08-26T02:07:43.346Z,92.80
2022-08-26T02:10:11.128Z,92.60
2022-08-26T02:12:39.243Z,92.60
2022-08-26T02:15:11.095Z,92.90
2022-08-26T02:17:43.220Z,92.60
2022-08-26T02:20:18.157Z,92.70
2022-08-26T02:22:46.096Z,92.80
2022-08-26T02:25:25.540Z,93.00
2022-08-26T02:27:53.062Z,93.30
2022-08-26T02:30:24.753Z,93.40
2022-08-26T02:32:53.932Z,93.60
2022-08-26T02:35:23.262Z,93.50
2022-08-26T02:37:52.551Z,93.50
2022-08-26T02:40:23.656Z,93.60
2022-08-26T02:43:01.960Z,93.60
2022-08-26T02:45:29.092Z,93.60
2022-08-26T02:47:58.507Z,93.90
2022-08-26T02:50:27.343Z,94.00
2022-08-26T02:52:54.422Z,94.10
2022-08-26T02:55:21.255Z,94.10
2022-08-26T02:57:52.440Z,94.20
2022-08-26T03:00:19.523Z,94.00
2022-08-26T03:02:46.492Z,94.30
2022-08-26T03:05:13.572Z,94.50
2022-08-26T03:07:40.392Z,94.40
2022-08-26T03:10:08.960Z,94.50
2022-08-26T03:12:36.373Z,94.60
2022-08-26T03:15:17.485Z,94.50
2022-08-26T03:17:46.851Z,94.60
2022-08-26T03:20:15.460Z,94.70
2022-08-26T03:22:43.165Z,94.90
2022-08-26T03:25:12.807Z,94.50
2022-08-26T03:27:42.989Z,94.30
2022-08-26T03:30:30.453Z,94.80
2022-08-26T03:32:57.420Z,94.70
2022-08-26T03:35:25.745Z,94.70
2022-08-26T03:37:53.991Z,94.30
2022-08-26T03:40:21.322Z,94.30
2022-08-26T03:42:50.028Z,94.10
2022-08-26T03:45:19.083Z,93.90
2022-08-26T03:47:47.903Z,93.90
2022-08-26T03:50:22.944Z,94.00
2022-08-26T03:52:53.622Z,94.00
2022-08-26T03:55:26.907Z,94.00
2022-08-26T03:57:54.377Z,94.00
2022-08-26T04:00:22.596Z,94.10
2022-08-26T04:02:53.292Z,94.20
2022-08-26T04:05:22.774Z,94.30
2022-08-26T04:07:49.980Z,94.60
2022-08-26T04:10:22.124Z,94.30
2022-08-26T04:12:55.759Z,94.50
2022-08-26T04:15:27.221Z,94.50
2022-08-26T04:17:54.543Z,94.50
2022-08-26T04:20:23.151Z,93.90
2022-08-26T04:22:50.682Z,94.40
2022-08-26T04:25:18.742Z,94.70
2022-08-26T04:27:48.309Z,94.60
2022-08-26T04:30:15.983Z,94.70
2022-08-26T04:32:43.886Z,94.50
2022-08-26T04:35:11.005Z,94.70
2022-08-26T04:37:38.389Z,94.90
2022-08-26T04:40:06.503Z,94.80
2022-08-26T04:42:34.349Z,94.70
2022-08-26T04:45:01.920Z,94.60
2022-08-26T04:47:32.759Z,94.80
2022-08-26T04:50:00.057Z,94.80
2022-08-26T04:52:28.656Z,94.90
2022-08-26T04:54:55.413Z,95.40
2022-08-26T04:57:23.302Z,95.20
2022-08-26T04:59:50.106Z,96.10
2022-08-26T05:02:16.911Z,96.10
2022-08-26T05:04:43.824Z,96.40
2022-08-26T05:07:11.007Z,96.50
2022-08-26T05:09:40.562Z,96.40
2022-08-26T05:12:07.724Z,96.40
2022-08-26T05:14:36.160Z,96.20
2022-08-26T05:17:03.887Z,96.30
2022-08-26T05:19:31.769Z,95.10
2022-08-26T05:21:59.717Z,96.00
2022-08-26T05:24:26.554Z,95.90
2022-08-26T05:26:54.339Z,95.80
2022-08-26T05:29:24.982Z,95.50
2022-08-26T05:31:53.374Z,95.80
2022-08-26T05:34:23.152Z,95.70
2022-08-26T05:36:52.952Z,95.60
2022-08-26T05:39:21.466Z,95.10
2022-08-26T05:41:48.252Z,94.50
2022-08-26T05:44:18.828Z,94.90
2022-08-26T05:46:46.117Z,94.80
2022-08-26T05:49:15.862Z,94.90
2022-08-26T05:51:46.333Z,95.10
2022-08-26T05:54:21.667Z,95.20
2022-08-26T05:56:49.954Z,94.90
2022-08-26T05:59:21.255Z,94.50
2022-08-26T06:01:52.071Z,94.10
2022-08-26T06:04:19.005Z,93.20
2022-08-26T06:06:47.223Z,93.50
2022-08-26T06:09:14.290Z,93.00
2022-08-26T06:11:44.450Z,93.50
2022-08-26T06:14:11.702Z,93.40
2022-08-26T06:16:41.197Z,92.80
2022-08-26T06:19:11.294Z,92.00
2022-08-26T06:21:41.388Z,92.20
2022-08-26T06:24:30.780Z,92.00
2022-08-26T06:27:04.700Z,91.10
2022-08-26T06:29:33.929Z,91.80
2022-08-26T06:32:01.424Z,91.10
2022-08-26T06:34:30.504Z,90.40
2022-08-26T06:37:02.147Z,91.00
2022-08-26T06:39:30.856Z,90.90
2022-08-26T06:41:59.139Z,90.30
2022-08-26T06:44:26.816Z,90.50
2022-08-26T06:46:53.899Z,89.40
2022-08-26T06:49:25.633Z,89.40
2022-08-26T06:52:00.604Z,88.00
2022-08-26T06:54:30.268Z,85.70
2022-08-26T06:56:57.686Z,87.30
2022-08-26T06:59:25.244Z,87.50
2022-08-26T07:01:52.341Z,86.80
2022-08-26T07:04:22.341Z,87.50
2022-08-26T07:06:52.897Z,87.40
2022-08-26T07:09:24.254Z,87.10
2022-08-26T07:11:52.307Z,86.10
2022-08-26T07:14:21.380Z,87.30
2022-08-26T07:16:50.323Z,86.80
2022-08-26T07:19:30.386Z,87.30
2022-08-26T07:21:59.856Z,89.00
2022-08-26T07:24:29.031Z,88.80
2022-08-26T07:27:00.165Z,88.50
2022-08-26T07:29:27.035Z,89.00
2022-08-26T07:31:54.219Z,88.40
2022-08-26T07:34:24.107Z,88.10
2022-08-26T07:36:51.593Z,88.50
2022-08-26T07:39:19.387Z,87.40
2022-08-26T07:41:47.342Z,88.60
2022-08-26T07:44:15.600Z,88.50
2022-08-26T07:46:44.364Z,87.30
2022-08-26T07:49:21.103Z,87.70
2022-08-26T07:51:49.275Z,86.70
2022-08-26T07:54:16.880Z,85.50
2022-08-26T07:56:44.606Z,84.30
2022-08-26T07:59:13.925Z,84.40
2022-08-26T08:01:44.721Z,84.10
2022-08-26T08:04:17.301Z,82.90
2022-08-26T08:06:45.497Z,82.50
2022-08-26T08:09:14.852Z,81.60
2022-08-26T08:11:43.543Z,82.80
2022-08-26T08:14:12.115Z,81.70
2022-08-26T08:16:46.041Z,80.70
2022-08-26T08:19:15.102Z,81.00
2022-08-26T08:21:43.532Z,80.60
2022-08-26T08:24:11.309Z,80.50
2022-08-26T08:26:38.651Z,80.20
2022-08-26T08:29:06.173Z,80.20
2022-08-26T08:34:22.078Z,79.60
2022-08-26T08:36:50.365Z,79.70
2022-08-26T08:39:20.682Z,79.00
2022-08-26T08:42:00.843Z,78.80
2022-08-26T08:44:29.686Z,77.50
2022-08-26T08:47:06.054Z,77.30
2022-08-26T08:49:34.545Z,76.10
2022-08-26T08:52:27.745Z,76.10
2022-08-26T08:54:56.258Z,76.20
2022-08-26T08:57:53.767Z,76.20
2022-08-26T09:00:30.318Z,75.20
2022-08-26T09:03:03.556Z,75.20
2022-08-26T09:05:40.069Z,75.10
2022-08-26T09:08:20.019Z,75.60
2022-08-26T09:10:54.702Z,75.40
2022-08-26T09:13:25.248Z,76.20
2022-08-26T09:16:09.960Z,76.50
2022-08-26T09:18:46.296Z,77.00
2022-08-26T09:21:17.889Z,77.40
2022-08-26T09:23:49.279Z,77.30
2022-08-26T09:26:39.547Z,77.50
2022-08-26T09:32:12.870Z,78.40
2022-08-26T09:35:02.763Z,78.10
2022-08-26T09:40:27.023Z,77.40
2022-08-26T09:43:15.777Z,77.80
2022-08-26T09:45:50.667Z,77.70
2022-08-26T09:48:45.457Z,77.70
2022-08-26T09:51:23.929Z,77.40
2022-08-26T09:53:53.529Z,77.60
2022-08-26T09:56:32.909Z,77.00
2022-08-26T09:59:01.022Z,76.70
2022-08-26T10:01:34.876Z,76.40
2022-08-26T10:04:22.691Z,75.90
2022-08-26T10:06:58.309Z,75.40
2022-08-26T10:09:26.285Z,75.20
2022-08-26T10:12:05.490Z,75.10
2022-08-26T10:14:50.052Z,74.10
2022-08-26T10:17:24.739Z,75.00
2022-08-26T10:19:58.489Z,74.70
2022-08-26T10:22:51.823Z,74.80
2022-08-26T10:25:24.702Z,73.20
2022-08-26T10:28:04.657Z,72.80
2022-08-26T10:30:47.201Z,72.30
2022-08-26T10:33:15.509Z,69.90
2022-08-26T10:35:56.363Z,69.00
2022-08-26T10:38:29.506Z,69.20
2022-08-26T10:41:11.184Z,68.20
2022-08-26T10:43:52.053Z,67.60
2022-08-26T10:46:27.109Z,67.70
2022-08-26T10:49:06.558Z,67.60
2022-08-26T10:51:38.590Z,67.30
2022-08-26T10:54:13.080Z,66.80
2022-08-26T10:56:51.918Z,66.50
2022-08-26T10:59:48.565Z,66.00
2022-08-26T11:02:39.017Z,66.70
2022-08-26T11:05:21.424Z,67.70
2022-08-26T11:07:56.072Z,68.80
2022-08-26T11:10:24.074Z,68.80
2022-08-26T11:12:52.458Z,68.80
2022-08-26T11:15:24.635Z,69.30
2022-08-26T11:18:06.237Z,69.70
2022-08-26T11:20:41.866Z,69.70
2022-08-26T11:23:26.330Z,70.00
2022-08-26T11:25:56.165Z,69.70
2022-08-26T11:28:39.672Z,69.00
2022-08-26T11:31:12.593Z,70.20
2022-08-26T11:33:52.790Z,69.50
2022-08-26T11:36:54.359Z,68.90
2022-08-26T11:39:31.915Z,69.80
2022-08-26T11:42:16.094Z,69.90
2022-08-26T11:44:49.168Z,70.10
2022-08-26T11:47:26.920Z,70.50
2022-08-26T11:50:09.487Z,70.80
2022-08-26T11:52:37.110Z,70.70
2022-08-26T11:55:08.839Z,70.50
2022-08-26T11:57:45.425Z,70.50
2022-08-26T12:00:22.576Z,70.50
2022-08-26T12:02:52.407Z,71.00
2022-08-26T12:05:31.125Z,71.00
2022-08-26T12:08:07.288Z,70.60
2022-08-26T12:10:34.782Z,70.50
2022-08-26T12:13:07.212Z,68.40
2022-08-26T12:15:35.675Z,67.40
2022-08-26T12:18:29.035Z,66.30
2022-08-26T12:20:59.396Z,66.10
2022-08-26T12:23:36.490Z,65.70
2022-08-26T12:26:24.717Z,66.10
2022-08-26T12:28:57.427Z,66.20
2022-08-26T12:31:40.385Z,65.90
2022-08-26T12:34:18.172Z,66.40
2022-08-26T12:36:48.786Z,67.20
2022-08-26T12:39:27.222Z,67.30
2022-08-26T12:41:56.833Z,67.90
2022-08-26T12:44:53.883Z,67.60
2022-08-26T12:47:39.080Z,68.20
2022-08-26T12:50:22.659Z,67.60
2022-08-26T12:52:57.571Z,68.50
2022-08-26T12:55:43.906Z,68.10
2022-08-26T12:58:16.665Z,68.30
2022-08-26T13:00:48.647Z,68.30
2022-08-26T13:03:35.068Z,68.20
2022-08-26T13:06:20.627Z,68.90
2022-08-26T13:08:57.885Z,67.80
2022-08-26T13:11:39.118Z,68.80
2022-08-26T13:14:27.347Z,69.80
2022-08-26T13:16:54.632Z,70.20
2022-08-26T13:19:23.902Z,69.90
2022-08-26T13:21:56.419Z,70.00
2022-08-26T13:24:40.540Z,70.20
2022-08-26T13:27:09.548Z,70.30
2022-08-26T13:29:36.505Z,70.10
2022-08-26T13:32:05.998Z,69.80
2022-08-26T13:34:34.169Z,69.50
2022-08-26T13:37:02.125Z,69.10
2022-08-26T13:39:29.106Z,68.10
2022-08-26T13:41:56.066Z,68.90
2022-08-26T13:44:22.965Z,69.40
2022-08-26T13:46:49.881Z,69.70
2022-08-26T13:49:17.062Z,69.70
2022-08-26T13:51:43.902Z,70.00
2022-08-26T13:54:10.861Z,70.40
2022-08-26T13:56:37.874Z,71.00
2022-08-26T13:59:05.753Z,71.40
2022-08-26T14:01:35.183Z,71.30
2022-08-26T14:04:03.276Z,71.50
2022-08-26T14:06:30.703Z,71.90
2022-08-26T14:08:58.111Z,71.10
2022-08-26T14:11:27.685Z,70.60
2022-08-26T14:13:54.777Z,70.80
2022-08-26T14:16:33.203Z,70.50
2022-08-26T14:19:02.001Z,70.60
2022-08-26T14:21:31.320Z,69.60
2022-08-26T14:24:00.916Z,70.00
2022-08-26T14:26:29.797Z,70.00
2022-08-26T14:28:59.621Z,70.40
2022-08-26T14:31:29.536Z,70.60
2022-08-26T14:34:03.879Z,70.60
2022-08-26T14:36:32.425Z,70.70
2022-08-26T14:39:04.160Z,70.30
2022-08-26T14:41:33.275Z,70.10
2022-08-26T14:44:06.806Z,70.30
2022-08-26T14:46:43.513Z,69.70
2022-08-26T14:49:10.973Z,69.40
2022-08-26T14:51:38.937Z,69.50
2022-08-26T14:54:14.930Z,69.40
2022-08-26T14:56:59.277Z,68.50
2022-08-26T14:59:32.257Z,67.90
2022-08-26T15:02:00.569Z,68.60
2022-08-26T15:04:28.402Z,68.40
2022-08-26T15:06:58.923Z,68.20
2022-08-26T15:09:27.557Z,68.40
2022-08-26T15:11:54.700Z,68.00
2022-08-26T15:14:22.272Z,68.50
2022-08-26T15:16:51.229Z,68.20
2022-08-26T15:19:19.064Z,68.90
2022-08-26T15:21:47.323Z,68.50
2022-08-26T15:24:16.887Z,68.70
2022-08-26T15:26:44.772Z,68.40
2022-08-26T15:29:11.675Z,68.00
2022-08-26T15:31:38.963Z,66.80
2022-08-26T15:34:16.064Z,66.80
2022-08-26T15:36:45.924Z,66.90
2022-08-26T15:39:14.081Z,66.90
2022-08-26T15:41:41.174Z,66.20
2022-08-26T15:44:10.197Z,67.40
2022-08-26T15:46:38.511Z,66.30
2022-08-26T15:49:07.074Z,66.20
2022-08-26T15:51:45.711Z,66.40
2022-08-26T15:54:14.200Z,65.80
2022-08-26T15:56:41.080Z,65.80
2022-08-26T15:59:11.342Z,65.70
2022-08-26T16:01:38.525Z,65.80
2022-08-26T16:04:05.889Z,65.60
2022-08-26T16:06:34.731Z,64.70
2022-08-26T16:09:02.040Z,64.60
2022-08-26T16:11:29.555Z,62.60
2022-08-26T16:13:56.447Z,63.00
2022-08-26T16:16:23.700Z,61.80
2022-08-26T16:18:50.894Z,60.90
2022-08-26T16:21:20.249Z,60.80
2022-08-26T16:23:47.642Z,60.40
2022-08-26T16:26:17.389Z,58.70
2022-08-26T16:28:44.745Z,53.80
2022-08-26T16:31:12.707Z,55.60
2022-08-26T16:33:40.801Z,52.90
2022-08-26T16:36:08.758Z,50.90
2022-08-26T16:38:36.374Z,52.10
2022-08-26T16:41:05.325Z,53.80
2022-08-26T16:43:32.372Z,55.80
2022-08-26T16:45:59.267Z,55.30
2022-08-26T16:48:27.129Z,57.10
2022-08-26T16:50:56.857Z,56.40
2022-08-26T16:53:24.073Z,56.10
2022-08-26T16:55:51.868Z,57.80
2022-08-26T16:58:22.113Z,59.50
2022-08-26T17:00:49.758Z,60.70
2022-08-26T17:03:17.220Z,61.80
2022-08-26T17:05:44.544Z,62.80
2022-08-26T17:08:14.516Z,64.20
2022-08-26T17:10:48.795Z,65.90
2022-08-26T17:13:35.192Z,65.50
2022-08-26T17:16:05.718Z,66.60
2022-08-26T17:18:33.676Z,66.80
2022-08-26T17:21:07.238Z,66.70
2022-08-26T17:23:34.512Z,67.60
2022-08-26T17:26:01.450Z,68.10
2022-08-26T17:28:28.434Z,68.40
2022-08-26T17:30:58.923Z,68.70
2022-08-26T17:33:26.768Z,68.50
2022-08-26T17:35:54.257Z,68.60
2022-08-26T17:38:21.946Z,68.60
2022-08-26T17:40:49.885Z,69.20
2022-08-26T17:43:17.502Z,69.50
2022-08-26T17:45:44.606Z,69.30
2022-08-26T17:48:11.964Z,69.00
2022-08-26T17:50:41.363Z,69.10
2022-08-26T17:53:08.400Z,69.50
2022-08-26T17:55:41.791Z,70.20
2022-08-26T17:58:14.534Z,69.50
2022-08-26T18:00:47.437Z,69.90
2022-08-26T18:03:14.766Z,69.20
2022-08-26T18:05:42.773Z,69.40
2022-08-26T18:08:09.941Z,69.50
2022-08-26T18:10:36.919Z,69.80
2022-08-26T18:13:03.748Z,69.60
2022-08-26T18:15:30.693Z,69.80
2022-08-26T18:17:57.712Z,69.30
2022-08-26T18:20:24.611Z,69.20
2022-08-26T18:22:51.517Z,69.40
2022-08-26T18:25:19.024Z,69.20
2022-08-26T18:27:46.177Z,69.20
2022-08-26T18:30:17.462Z,68.40
2022-08-26T18:32:45.026Z,68.70
2022-08-26T18:35:12.975Z,68.30
2022-08-26T18:37:40.328Z,68.90
2022-08-26T18:40:09.800Z,69.00
2022-08-26T18:42:37.223Z,69.40
2022-08-26T18:45:08.956Z,69.80
2022-08-26T18:47:36.418Z,69.30
2022-08-26T18:50:04.510Z,70.30
2022-08-26T18:52:32.411Z,70.60
2022-08-26T18:54:59.759Z,70.80
2022-08-26T18:57:26.629Z,70.50
2022-08-26T18:59:53.629Z,70.60
2022-08-26T19:02:20.572Z,71.10
2022-08-26T19:04:48.090Z,71.20
2022-08-26T19:07:14.883Z,70.80
2022-08-26T19:09:41.843Z,70.90
2022-08-26T19:12:08.950Z,71.30
2022-08-26T19:14:36.647Z,71.20
2022-08-26T19:17:03.894Z,71.90
2022-08-26T19:19:32.168Z,71.90
2022-08-26T19:22:01.465Z,72.10
2022-08-26T19:24:28.551Z,72.60
2022-08-26T19:26:58.432Z,72.30
2022-08-26T19:29:28.638Z,72.90
2022-08-26T19:31:56.493Z,73.00
2022-08-26T19:34:23.784Z,73.40
2022-08-26T19:36:53.175Z,73.20
2022-08-26T19:39:21.434Z,73.60
2022-08-26T19:41:49.154Z,73.10
2022-08-26T19:44:39.074Z,73.40
2022-08-26T19:47:08.007Z,73.70
2022-08-26T19:49:37.723Z,74.10
2022-08-26T19:52:06.113Z,74.30
2022-08-26T19:54:34.168Z,74.60
2022-08-26T19:57:01.099Z,74.70
2022-08-26T19:59:29.057Z,74.50
2022-08-26T20:02:01.025Z,74.50
2022-08-26T20:04:32.651Z,74.50
2022-08-26T20:07:00.912Z,74.80
2022-08-26T20:09:33.066Z,74.80
2022-08-26T20:12:01.099Z,75.10
2022-08-26T20:14:28.677Z,75.40
2022-08-26T20:16:55.822Z,75.70
2022-08-26T20:19:41.736Z,75.90
2022-08-26T20:22:08.884Z,76.50
2022-08-26T20:24:36.181Z,76.70
2022-08-26T20:27:07.741Z,77.00
2022-08-26T20:29:36.043Z,77.70
2022-08-26T20:32:06.070Z,78.00
2022-08-26T20:34:33.943Z,78.40
2022-08-26T20:37:02.108Z,78.30
2022-08-26T20:39:29.773Z,78.50
2022-08-26T20:41:57.961Z,78.70
2022-08-26T20:44:25.613Z,79.20
2022-08-26T20:46:52.899Z,79.40
2022-08-26T20:49:19.975Z,79.40
2022-08-26T20:51:51.571Z,79.60
2022-08-26T20:54:27.534Z,80.10
2022-08-26T20:56:57.278Z,80.50
2022-08-26T20:59:27.902Z,80.50
2022-08-26T21:01:55.484Z,80.60
2022-08-26T21:04:24.545Z,80.90
2022-08-26T21:06:53.051Z,80.60
2022-08-26T21:09:23.226Z,81.30
2022-08-26T21:11:51.112Z,81.50
2022-08-26T21:14:19.136Z,81.80
2022-08-26T21:16:47.090Z,82.10
2022-08-26T21:19:17.634Z,82.40
2022-08-26T21:21:46.734Z,82.90
2022-08-26T21:24:14.510Z,83.40
2022-08-26T21:26:44.615Z,84.10
2022-08-26T21:29:13.577Z,84.10
2022-08-26T21:31:45.787Z,84.70
2022-08-26T21:34:15.922Z,84.90
2022-08-26T21:36:43.112Z,85.10
2022-08-26T21:39:12.080Z,85.20
2022-08-26T21:41:40.650Z,85.70
2022-08-26T21:44:08.154Z,86.20
2022-08-26T21:46:37.307Z,86.70
2022-08-26T21:49:07.548Z,87.00
2022-08-26T21:51:36.991Z,87.30
2022-08-26T21:54:09.976Z,87.70
2022-08-26T21:56:44.310Z,88.10
2022-08-26T21:59:11.589Z,88.40
2022-08-26T22:01:38.656Z,88.70
2022-08-26T22:04:07.939Z,89.00
2022-08-26T22:06:41.824Z,89.20
2022-08-26T22:09:08.800Z,89.40
2022-08-26T22:11:35.868Z,89.80
2022-08-26T22:14:02.894Z,90.00
2022-08-26T22:16:29.942Z,90.20
2022-08-26T22:18:56.917Z,90.30
2022-08-26T22:21:27.987Z,90.20
2022-08-26T22:23:58.371Z,90.30
2022-08-26T22:26:29.110Z,90.30
2022-08-26T22:28:58.807Z,90.30
2022-08-26T22:31:37.061Z,90.30
2022-08-26T22:34:12.640Z,90.50
2022-08-26T22:36:43.829Z,90.60
2022-08-26T22:39:13.237Z,90.70
2022-08-26T22:41:40.910Z,90.80
2022-08-26T22:44:07.830Z,91.00
2022-08-26T22:46:36.853Z,91.10
2022-08-26T22:49:04.841Z,91.20
2022-08-26T22:51:32.150Z,91.40
2022-08-26T22:53:59.350Z,91.40
2022-08-26T22:56:26.655Z,91.50
2022-08-26T22:58:53.697Z,91.60
2022-08-26T23:01:20.679Z,91.50
2022-08-26T23:03:47.738Z,91.60
2022-08-26T23:06:14.723Z,91.60
2022-08-26T23:08:45.206Z,91.70
2022-08-26T23:11:13.930Z,92.20
2022-08-26T23:13:41.218Z,92.00
2022-08-26T23:16:11.481Z,92.10
2022-08-26T23:18:40.073Z,92.20
2022-08-26T23:21:07.647Z,92.20
2022-08-26T23:23:35.573Z,92.20
2022-08-26T23:26:06.179Z,92.10
2022-08-26T23:28:34.519Z,92.10
2022-08-26T23:31:01.832Z,92.00
2022-08-26T23:33:49.395Z,92.00
2022-08-26T23:36:18.447Z,91.90
2022-08-26T23:38:53.095Z,92.00
2022-08-26T23:41:22.196Z,91.80
2022-08-26T23:43:50.407Z,91.70
2022-08-26T23:46:18.238Z,91.60
2022-08-26T23:48:45.345Z,91.40
2022-08-26T23:51:30.992Z,91.30
2022-08-26T23:53:58.090Z,91.20
2022-08-26T23:56:26.723Z,91.10
2022-08-26T23:58:54.655Z,91.00
